Time,TemperatureF,DewpointF,PressureIn,WindDirection,WindDirectionDegrees,WindSpeedMPH,WindSpeedGustMPH,Humidity,HourlyPrecipIn,Conditions,Clouds,dailyrainin,SoftwareType,DateUTC
2013-03-27 00:02:00,57.0,28.0,-100.00,WSW,241,9.0,18.0,33,-99.99,,,-99.99,,2013-03-27 00:02:00,
2013-03-27 00:12:00,56.0,28.0,-100.00,WSW,240,8.0,13.0,34,-99.99,,,-99.99,,2013-03-27 00:12:00,
2013-03-27 00:22:00,56.0,27.0,-100.00,South,185,5.0,14.0,33,-99.99,,,-99.99,,2013-03-27 00:22:00,
2013-03-27 00:32:00,56.0,27.0,-100.00,South,185,5.0,14.0,33,-99.99,,,-99.99,,2013-03-27 00:32:00,
2013-03-27 00:42:00,56.0,27.0,-100.00,South,185,5.0,14.0,33,-99.99,,,-99.99,,2013-03-27 00:42:00,
2013-03-27 00:52:00,56.0,30.0,-100.00,WSW,251,12.0,28.0,37,-99.99,,,-99.99,,2013-03-27 00:52:00,
2013-03-27 01:02:00,56.0,31.0,-100.00,SW,232,12.0,25.0,38,-99.99,,,-99.99,,2013-03-27 01:02:00,
2013-03-27 01:12:00,56.0,31.0,-100.00,SW,234,12.0,25.0,38,-99.99,,,-99.99,,2013-03-27 01:12:00,
2013-03-27 01:22:00,57.0,28.0,-100.00,SW,219,10.0,17.0,33,-99.99,,,-99.99,,2013-03-27 01:22:00,
2013-03-27 01:32:00,55.0,30.0,-100.00,South,181,11.0,17.0,38,-99.99,,,-99.99,,2013-03-27 01:32:00,
2013-03-27 01:42:00,55.0,30.0,-100.00,South,181,11.0,17.0,38,-99.99,,,-99.99,,2013-03-27 01:42:00,
2013-03-27 01:52:00,55.0,32.0,-100.00,SSE,160,5.0,13.0,41,-99.99,,,-99.99,,2013-03-27 01:52:00,
2013-03-27 02:02:00,53.0,31.0,-100.00,SE,144,7.0,12.0,42,-99.99,,,-99.99,,2013-03-27 02:02:00,
2013-03-27 02:12:00,53.0,29.0,-100.00,SE,144,6.0,12.0,40,-99.99,,,-99.99,,2013-03-27 02:12:00,
2013-03-27 02:22:00,52.0,28.0,-100.00,South,179,4.0,11.0,39,-99.99,,,-99.99,,2013-03-27 02:22:00,
2013-03-27 02:32:00,52.0,28.0,-100.00,East,88,5.0,11.0,40,-99.99,,,-99.99,,2013-03-27 02:32:00,
2013-03-27 02:42:00,52.0,28.0,-100.00,East,88,5.0,11.0,40,-99.99,,,-99.99,,2013-03-27 02:42:00,
2013-03-27 02:52:00,52.0,30.0,-100.00,SSW,193,2.0,9.0,42,-99.99,,,-99.99,,2013-03-27 02:52:00,
2013-03-27 03:02:00,51.0,30.0,-100.00,SSE,158,4.0,7.0,44,-99.99,,,-99.99,,2013-03-27 03:02:00,
2013-03-27 03:11:00,50.0,28.0,-100.00,SSE,161,3.0,7.0,42,-99.99,,,-99.99,,2013-03-27 03:11:00,
2013-03-27 03:22:00,50.0,28.0,-100.00,SSE,161,3.0,7.0,42,-99.99,,,-99.99,,2013-03-27 03:22:00,
2013-03-27 03:33:00,50.0,28.0,-100.00,SSE,161,3.0,7.0,42,-99.99,,,-99.99,,2013-03-27 03:33:00,
2013-03-27 03:42:00,50.0,28.0,-100.00,SSE,161,3.0,7.0,42,-99.99,,,-99.99,,2013-03-27 03:42:00,
2013-03-27 03:52:00,48.0,31.0,-100.00,SSE,158,5.0,10.0,52,-99.99,,,-99.99,,2013-03-27 03:52:00,
2013-03-27 04:02:00,48.0,31.0,-100.00,ESE,119,1.0,4.0,51,-99.99,,,-99.99,,2013-03-27 04:02:00,
2013-03-27 04:12:00,48.0,30.0,-100.00,ESE,114,1.0,5.0,50,-99.99,,,-99.99,,2013-03-27 04:12:00,
2013-03-27 04:22:00,48.0,32.0,-100.00,SSE,157,3.0,8.0,54,-99.99,,,-99.99,,2013-03-27 04:22:00,
2013-03-27 04:32:00,48.0,32.0,-100.00,SE,130,3.0,7.0,54,-99.99,,,-99.99,,2013-03-27 04:32:00,
2013-03-27 04:42:00,48.0,32.0,-100.00,SE,130,3.0,7.0,54,-99.99,,,-99.99,,2013-03-27 04:42:00,
2013-03-27 04:52:00,49.0,31.0,-100.00,SSE,160,4.0,12.0,49,-99.99,,,-99.99,,2013-03-27 04:52:00,
2013-03-27 05:02:00,49.0,29.0,-100.00,South,176,7.0,13.0,46,-99.99,,,-99.99,,2013-03-27 05:02:00,
2013-03-27 05:12:00,49.0,30.0,-100.00,South,179,7.0,14.0,47,-99.99,,,-99.99,,2013-03-27 05:12:00,
2013-03-27 05:22:00,49.0,30.0,-100.00,South,181,7.0,13.0,48,-99.99,,,-99.99,,2013-03-27 05:22:00,
2013-03-27 05:32:00,46.0,29.0,-100.00,NNW,337,3.0,6.0,51,-99.99,,,-99.99,,2013-03-27 05:32:00,
2013-03-27 05:42:00,46.0,29.0,-100.00,NNW,337,3.0,6.0,51,-99.99,,,-99.99,,2013-03-27 05:42:00,
2013-03-27 05:52:00,46.0,29.0,-100.00,NNE,16,3.0,5.0,51,-99.99,,,-99.99,,2013-03-27 05:52:00,
2013-03-27 06:02:00,47.0,30.0,-100.00,SE,145,1.0,6.0,52,-99.99,,,-99.99,,2013-03-27 06:02:00,
2013-03-27 06:12:00,47.0,30.0,-100.00,ENE,66,1.0,6.0,53,-99.99,,,-99.99,,2013-03-27 06:12:00,
2013-03-27 06:22:00,47.0,31.0,-100.00,WNW,302,2.0,5.0,53,-99.99,,,-99.99,,2013-03-27 06:22:00,
2013-03-27 06:32:00,45.0,30.0,-100.00,North,8,1.0,5.0,55,-99.99,,,-99.99,,2013-03-27 06:32:00,
2013-03-27 06:42:00,45.0,30.0,-100.00,North,8,1.0,5.0,55,-99.99,,,-99.99,,2013-03-27 06:42:00,
2013-03-27 06:52:00,44.0,30.0,-100.00,NE,40,4.0,7.0,58,-99.99,,,-99.99,,2013-03-27 06:52:00,
2013-03-27 07:02:00,44.0,30.0,-100.00,NE,40,4.0,7.0,58,-99.99,,,-99.99,,2013-03-27 07:02:00,
2013-03-27 07:12:00,44.0,31.0,-100.00,ESE,110,3.0,6.0,60,-99.99,,,-99.99,,2013-03-27 07:12:00,
2013-03-27 07:22:00,44.0,31.0,-100.00,SSE,162,2.0,4.0,60,-99.99,,,-99.99,,2013-03-27 07:22:00,
2013-03-27 07:32:00,43.0,31.0,-100.00,SSW,203,4.0,6.0,62,-99.99,,,-99.99,,2013-03-27 07:32:00,
2013-03-27 07:42:00,43.0,31.0,-100.00,SSW,203,4.0,6.0,62,-99.99,,,-99.99,,2013-03-27 07:42:00,
2013-03-27 07:53:00,43.0,31.0,-100.00,NNE,27,5.0,7.0,62,-99.99,,,-99.99,,2013-03-27 07:53:00,
2013-03-27 08:02:00,41.0,30.0,-100.00,SE,141,2.0,5.0,64,-99.99,,,-99.99,,2013-03-27 08:02:00,
2013-03-27 08:12:00,41.0,30.0,-100.00,SSE,162,1.0,3.0,65,-99.99,,,-99.99,,2013-03-27 08:12:00,
2013-03-27 08:22:00,40.0,31.0,-100.00,SSE,147,2.0,3.0,69,-99.99,,,-99.99,,2013-03-27 08:22:00,
2013-03-27 08:32:00,39.0,30.0,-100.00,SSW,193,3.0,4.0,70,-99.99,,,-99.99,,2013-03-27 08:32:00,
2013-03-27 08:43:00,39.0,30.0,-100.00,SSW,193,3.0,4.0,70,-99.99,,,-99.99,,2013-03-27 08:43:00,
2013-03-27 08:52:00,40.0,30.0,-100.00,North,360,0.0,2.0,68,-99.99,,,-99.99,,2013-03-27 08:52:00,
2013-03-27 09:01:00,38.0,29.0,-100.00,WSW,251,1.0,3.0,71,-99.99,,,-99.99,,2013-03-27 09:01:00,
2013-03-27 09:12:00,38.0,29.0,-100.00,WSW,246,0.0,3.0,72,-99.99,,,-99.99,,2013-03-27 09:12:00,
2013-03-27 09:22:00,38.0,30.0,-100.00,South,181,1.0,2.0,74,-99.99,,,-99.99,,2013-03-27 09:22:00,
2013-03-27 09:32:00,37.0,30.0,-100.00,SE,128,1.0,3.0,76,-99.99,,,-99.99,,2013-03-27 09:32:00,
2013-03-27 09:42:00,37.0,30.0,-100.00,SE,128,1.0,3.0,76,-99.99,,,-99.99,,2013-03-27 09:42:00,
2013-03-27 09:52:00,36.0,28.0,-100.00,NE,38,0.0,2.0,74,-99.99,,,-99.99,,2013-03-27 09:52:00,
2013-03-27 10:02:00,36.0,29.0,-100.00,ESE,110,2.0,3.0,77,-99.99,,,-99.99,,2013-03-27 10:02:00,
2013-03-27 10:12:00,36.0,29.0,-100.00,East,99,2.0,3.0,75,-99.99,,,-99.99,,2013-03-27 10:12:00,
2013-03-27 10:22:00,34.0,27.0,-100.00,SE,127,2.0,5.0,76,-99.99,,,-99.99,,2013-03-27 10:22:00,
2013-03-27 10:32:00,34.0,30.0,-100.00,SSW,202,1.0,3.0,85,-99.99,,,-99.99,,2013-03-27 10:32:00,
2013-03-27 10:42:00,34.0,29.0,-100.00,West,274,1.0,2.0,83,-99.99,,,-99.99,,2013-03-27 10:42:00,
2013-03-27 10:52:00,33.0,28.0,-100.00,WNW,296,1.0,5.0,83,-99.99,,,-99.99,,2013-03-27 10:52:00,
2013-03-27 11:02:00,33.0,28.0,-100.00,WNW,296,1.0,5.0,83,-99.99,,,-99.99,,2013-03-27 11:02:00,
2013-03-27 11:12:00,33.0,28.0,-100.00,East,92,2.0,5.0,80,-99.99,,,-99.99,,2013-03-27 11:12:00,
2013-03-27 11:22:00,34.0,28.0,-100.00,ENE,71,2.0,6.0,77,-99.99,,,-99.99,,2013-03-27 11:22:00,
2013-03-27 11:32:00,34.0,28.0,-100.00,East,80,2.0,6.0,78,-99.99,,,-99.99,,2013-03-27 11:32:00,
2013-03-27 11:42:00,34.0,28.0,-100.00,ESE,120,2.0,3.0,79,-99.99,,,-99.99,,2013-03-27 11:42:00,
2013-03-27 11:52:00,34.0,29.0,-100.00,East,99,1.0,2.0,83,-99.99,,,-99.99,,2013-03-27 11:52:00,
2013-03-27 12:02:00,34.0,29.0,-100.00,East,99,1.0,2.0,83,-99.99,,,-99.99,,2013-03-27 12:02:00,
2013-03-27 12:12:00,33.0,29.0,-100.00,SSW,213,0.0,3.0,84,-99.99,,,-99.99,,2013-03-27 12:12:00,
2013-03-27 12:22:00,32.0,26.0,-100.00,North,10,0.0,3.0,79,-99.99,,,-99.99,,2013-03-27 12:22:00,
2013-03-27 12:32:00,32.0,27.0,-100.00,SW,224,1.0,3.0,81,-99.99,,,-99.99,,2013-03-27 12:32:00,
2013-03-27 12:42:00,32.0,27.0,-100.00,SW,224,1.0,3.0,81,-99.99,,,-99.99,,2013-03-27 12:42:00,
2013-03-27 12:52:00,32.0,27.0,-100.00,NNE,20,1.0,3.0,82,-99.99,,,-99.99,,2013-03-27 12:52:00,
2013-03-27 13:02:00,32.0,27.0,-100.00,ENE,66,1.0,3.0,80,-99.99,,,-99.99,,2013-03-27 13:02:00,
2013-03-27 13:12:00,32.0,27.0,-100.00,ESE,119,3.0,6.0,82,-99.99,,,-99.99,,2013-03-27 13:12:00,
2013-03-27 13:22:00,32.0,27.0,-100.00,ESE,119,3.0,6.0,82,-99.99,,,-99.99,,2013-03-27 13:22:00,
2013-03-27 13:32:00,32.0,28.0,-100.00,SE,127,3.0,5.0,85,-99.99,,,-99.99,,2013-03-27 13:32:00,
2013-03-27 13:42:00,32.0,29.0,-100.00,West,277,0.0,2.0,87,-99.99,,,-99.99,,2013-03-27 13:42:00,
2013-03-27 13:52:00,30.0,26.0,-100.00,NNE,18,0.0,3.0,82,-99.99,,,-99.99,,2013-03-27 13:52:00,
2013-03-27 14:02:00,31.0,27.0,-100.00,ENE,58,1.0,3.0,84,-99.99,,,-99.99,,2013-03-27 14:02:00,
2013-03-27 14:11:00,31.0,27.0,-100.00,ESE,103,2.0,5.0,84,-99.99,,,-99.99,,2013-03-27 14:11:00,
2013-03-27 14:22:00,31.0,27.0,-100.00,ESE,103,2.0,5.0,84,-99.99,,,-99.99,,2013-03-27 14:22:00,
2013-03-27 14:32:00,32.0,27.0,-100.00,East,92,1.0,4.0,82,-99.99,,,-99.99,,2013-03-27 14:32:00,
2013-03-27 14:42:00,32.0,28.0,-100.00,NE,56,0.0,2.0,84,-99.99,,,-99.99,,2013-03-27 14:42:00,
2013-03-27 14:52:00,32.0,27.0,-100.00,NNE,28,0.0,2.0,81,-99.99,,,-99.99,,2013-03-27 14:52:00,
2013-03-27 15:02:00,35.0,29.0,-100.00,ENE,78,1.0,3.0,77,-99.99,,,-99.99,,2013-03-27 15:02:00,
2013-03-27 15:11:00,37.0,29.0,-100.00,NE,49,1.0,3.0,74,-99.99,,,-99.99,,2013-03-27 15:11:00,
2013-03-27 15:22:00,37.0,29.0,-100.00,NE,49,1.0,3.0,74,-99.99,,,-99.99,,2013-03-27 15:22:00,
2013-03-27 15:32:00,39.0,30.0,-100.00,East,88,1.0,4.0,71,-99.99,,,-99.99,,2013-03-27 15:32:00,
2013-03-27 15:42:00,41.0,31.0,-100.00,East,86,0.0,3.0,66,-99.99,,,-99.99,,2013-03-27 15:42:00,
2013-03-27 15:52:00,41.0,31.0,-100.00,ENE,65,1.0,3.0,65,-99.99,,,-99.99,,2013-03-27 15:52:00,
2013-03-27 16:02:00,41.0,31.0,-100.00,North,3,1.0,3.0,66,-99.99,,,-99.99,,2013-03-27 16:02:00,
2013-03-27 16:12:00,42.0,31.0,-100.00,NNW,347,1.0,3.0,65,-99.99,,,-99.99,,2013-03-27 16:12:00,
2013-03-27 16:22:00,42.0,31.0,-100.00,NNW,347,1.0,3.0,65,-99.99,,,-99.99,,2013-03-27 16:22:00,
2013-03-27 16:32:00,44.0,31.0,-100.00,ENE,58,1.0,6.0,61,-99.99,,,-99.99,,2013-03-27 16:32:00,
2013-03-27 16:42:00,46.0,32.0,-100.00,South,188,1.0,3.0,58,-99.99,,,-99.99,,2013-03-27 16:42:00,
2013-03-27 16:52:00,46.0,31.0,-100.00,West,267,1.0,3.0,55,-99.99,,,-99.99,,2013-03-27 16:52:00,
2013-03-27 17:02:00,46.0,31.0,-100.00,West,267,1.0,3.0,55,-99.99,,,-99.99,,2013-03-27 17:02:00,
2013-03-27 17:11:00,48.0,31.0,-100.00,North,360,1.0,3.0,50,-99.99,,,-99.99,,2013-03-27 17:11:00,
2013-03-27 17:22:00,50.0,31.0,-100.00,North,353,1.0,3.0,48,-99.99,,,-99.99,,2013-03-27 17:22:00,
2013-03-27 17:32:00,51.0,30.0,-100.00,North,357,1.0,4.0,45,-99.99,,,-99.99,,2013-03-27 17:32:00,
2013-03-27 17:44:00,51.0,30.0,-100.00,North,357,1.0,4.0,45,-99.99,,,-99.99,,2013-03-27 17:44:00,
2013-03-27 17:52:00,53.0,31.0,-100.00,NE,44,2.0,4.0,42,-99.99,,,-99.99,,2013-03-27 17:52:00,
2013-03-27 18:02:00,53.0,29.0,-100.00,NNW,332,3.0,6.0,39,-99.99,,,-99.99,,2013-03-27 18:02:00,
2013-03-27 18:12:00,53.0,29.0,-100.00,NW,326,3.0,6.0,39,-99.99,,,-99.99,,2013-03-27 18:12:00,
2013-03-27 18:22:00,54.0,29.0,-100.00,WNW,294,3.0,8.0,38,-99.99,,,-99.99,,2013-03-27 18:22:00,
2013-03-27 18:32:00,54.0,28.0,-100.00,ENE,73,2.0,5.0,36,-99.99,,,-99.99,,2013-03-27 18:32:00,
2013-03-27 18:42:00,54.0,28.0,-100.00,ENE,73,2.0,5.0,36,-99.99,,,-99.99,,2013-03-27 18:42:00,
2013-03-27 18:53:00,57.0,28.0,-100.00,SSE,152,5.0,9.0,33,-99.99,,,-99.99,,2013-03-27 18:53:00,
2013-03-27 19:02:00,56.0,27.0,-100.00,WSW,257,4.0,8.0,33,-99.99,,,-99.99,,2013-03-27 19:02:00,
2013-03-27 19:12:00,57.0,28.0,-100.00,WSW,253,5.0,12.0,33,-99.99,,,-99.99,,2013-03-27 19:12:00,
2013-03-27 19:21:00,59.0,27.0,-100.00,WSW,244,6.0,12.0,29,-99.99,,,-99.99,,2013-03-27 19:21:00,
2013-03-27 19:32:00,59.0,27.0,-100.00,SSW,193,3.0,9.0,29,-99.99,,,-99.99,,2013-03-27 19:32:00,
2013-03-27 19:42:00,59.0,26.0,-100.00,WSW,240,3.0,11.0,28,-99.99,,,-99.99,,2013-03-27 19:42:00,
2013-03-27 19:52:00,60.0,27.0,-100.00,WSW,247,3.0,10.0,28,-99.99,,,-99.99,,2013-03-27 19:52:00,
2013-03-27 20:02:00,60.0,26.0,-100.00,WNW,289,4.0,9.0,27,-99.99,,,-99.99,,2013-03-27 20:02:00,
2013-03-27 20:12:00,60.0,26.0,-100.00,WNW,289,5.0,14.0,27,-99.99,,,-99.99,,2013-03-27 20:12:00,
2013-03-27 20:22:00,60.0,26.0,-100.00,WNW,289,5.0,14.0,27,-99.99,,,-99.99,,2013-03-27 20:22:00,
2013-03-27 20:32:00,59.0,25.0,-100.00,NW,320,6.0,13.0,27,-99.99,,,-99.99,,2013-03-27 20:32:00,
2013-03-27 20:42:00,61.0,25.0,-100.00,West,278,5.0,11.0,25,-99.99,,,-99.99,,2013-03-27 20:42:00,
2013-03-27 20:52:00,62.0,25.0,-100.00,WNW,298,3.0,8.0,24,-99.99,,,-99.99,,2013-03-27 20:52:00,
2013-03-27 21:02:00,62.0,24.0,-100.00,SSW,193,5.0,11.0,23,-99.99,,,-99.99,,2013-03-27 21:02:00,
2013-03-27 21:12:00,62.0,26.0,-100.00,WNW,292,8.0,17.0,25,-99.99,,,-99.99,,2013-03-27 21:12:00,
2013-03-27 21:22:00,62.0,26.0,-100.00,WNW,292,8.0,17.0,25,-99.99,,,-99.99,,2013-03-27 21:22:00,
2013-03-27 21:32:00,63.0,24.0,-100.00,SSW,198,6.0,14.0,22,-99.99,,,-99.99,,2013-03-27 21:32:00,
2013-03-27 21:42:00,62.0,26.0,-100.00,West,278,6.0,15.0,25,-99.99,,,-99.99,,2013-03-27 21:42:00,
2013-03-27 21:52:00,63.0,25.0,-100.00,WSW,254,5.0,15.0,23,-99.99,,,-99.99,,2013-03-27 21:52:00,
2013-03-27 22:02:00,63.0,25.0,-100.00,South,186,9.0,17.0,23,-99.99,,,-99.99,,2013-03-27 22:02:00,
2013-03-27 22:12:00,63.0,26.0,-100.00,South,184,10.0,18.0,24,-99.99,,,-99.99,,2013-03-27 22:12:00,
2013-03-27 22:23:00,63.0,26.0,-100.00,South,189,12.0,21.0,24,-99.99,,,-99.99,,2013-03-27 22:23:00,
2013-03-27 22:32:00,64.0,25.0,-100.00,South,171,9.0,18.0,23,-99.99,,,-99.99,,2013-03-27 22:32:00,
2013-03-27 22:42:00,64.0,25.0,-100.00,South,171,9.0,18.0,23,-99.99,,,-99.99,,2013-03-27 22:42:00,
2013-03-27 22:52:00,63.0,26.0,-100.00,SSW,196,13.0,23.0,25,-99.99,,,-99.99,,2013-03-27 22:52:00,
2013-03-27 23:02:00,63.0,26.0,-100.00,SSW,196,13.0,23.0,25,-99.99,,,-99.99,,2013-03-27 23:02:00,
2013-03-27 23:12:00,62.0,27.0,-100.00,SSW,196,11.0,19.0,26,-99.99,,,-99.99,,2013-03-27 23:12:00,
2013-03-27 23:22:00,63.0,28.0,-100.00,South,185,11.0,20.0,26,-99.99,,,-99.99,,2013-03-27 23:22:00,
2013-03-27 23:32:00,62.0,26.0,-100.00,South,189,11.0,21.0,26,-99.99,,,-99.99,,2013-03-27 23:32:00,
2013-03-27 23:42:00,61.0,28.0,-100.00,SSW,205,12.0,19.0,28,-99.99,,,-99.99,,2013-03-27 23:42:00,
2013-03-27 23:52:00,61.0,30.0,-100.00,SW,232,11.0,21.0,30,-99.99,,,-99.99,,2013-03-27 23:52:00,